sensor_id;sensor_type;location;lat;lon;timestamp;P1;durP1;ratioP1;P2;durP2;ratioP2
55224;SDS011;41091;49.400;8.684;2023-12-29T00:01:58;4.78;;;3.47;;
55224;SDS011;41091;49.400;8.684;2023-12-29T00:04:25;3.75;;;3.55;;
55224;SDS011;41091;49.400;8.684;2023-12-29T00:06:50;4.82;;;3.83;;
55224;SDS011;41091;49.400;8.684;2023-12-29T00:09:15;3.42;;;3.10;;
55224;SDS011;41091;49.400;8.684;2023-12-29T00:11:41;4.07;;;3.17;;
55224;SDS011;41091;49.400;8.684;2023-12-29T00:14:06;3.15;;;2.95;;
55224;SDS011;41091;49.400;8.684;2023-12-29T00:16:31;3.33;;;2.95;;
55224;SDS011;41091;49.400;8.684;2023-12-29T00:18:57;6.05;;;3.40;;
55224;SDS011;41091;49.400;8.684;2023-12-29T00:21:22;3.75;;;3.45;;
55224;SDS011;41091;49.400;8.684;2023-12-29T00:23:47;4.13;;;3.80;;
55224;SDS011;41091;49.400;8.684;2023-12-29T00:26:15;4.55;;;4.18;;
55224;SDS011;41091;49.400;8.684;2023-12-29T00:28:44;5.50;;;4.25;;
55224;SDS011;41091;49.400;8.684;2023-12-29T00:31:13;4.05;;;3.30;;
55224;SDS011;41091;49.400;8.684;2023-12-29T00:33:43;3.88;;;3.58;;
55224;SDS011;41091;49.400;8.684;2023-12-29T00:36:13;3.75;;;3.35;;
55224;SDS011;41091;49.400;8.684;2023-12-29T00:38:39;4.55;;;3.72;;
55224;SDS011;41091;49.400;8.684;2023-12-29T00:41:07;4.70;;;4.03;;
55224;SDS011;41091;49.400;8.684;2023-12-29T00:43:35;5.38;;;4.03;;
55224;SDS011;41091;49.400;8.684;2023-12-29T00:46:03;3.50;;;3.30;;
55224;SDS011;41091;49.400;8.684;2023-12-29T00:48:28;4.43;;;3.30;;
55224;SDS011;41091;49.400;8.684;2023-12-29T00:51:00;4.65;;;3.72;;
55224;SDS011;41091;49.400;8.684;2023-12-29T00:53:26;3.95;;;3.63;;
55224;SDS011;41091;49.400;8.684;2023-12-29T00:55:54;4.85;;;3.90;;
55224;SDS011;41091;49.400;8.684;2023-12-29T00:58:19;8.95;;;3.95;;
55224;SDS011;41091;49.400;8.684;2023-12-29T01:00:44;3.83;;;3.63;;
55224;SDS011;41091;49.400;8.684;2023-12-29T01:03:12;5.25;;;3.67;;
55224;SDS011;41091;49.400;8.684;2023-12-29T01:05:37;4.70;;;3.67;;
55224;SDS011;41091;49.400;8.684;2023-12-29T01:08:03;4.30;;;4.00;;
55224;SDS011;41091;49.400;8.684;2023-12-29T01:10:28;4.78;;;3.70;;
55224;SDS011;41091;49.400;8.684;2023-12-29T01:12:54;7.00;;;4.22;;
55224;SDS011;41091;49.400;8.684;2023-12-29T01:15:19;3.65;;;3.35;;
55224;SDS011;41091;49.400;8.684;2023-12-29T01:17:46;4.75;;;3.95;;
55224;SDS011;41091;49.400;8.684;2023-12-29T01:20:14;4.03;;;3.45;;
55224;SDS011;41091;49.400;8.684;2023-12-29T01:22:44;3.92;;;3.55;;
55224;SDS011;41091;49.400;8.684;2023-12-29T01:25:09;3.75;;;3.45;;
55224;SDS011;41091;49.400;8.684;2023-12-29T01:27:35;3.85;;;3.50;;
55224;SDS011;41091;49.400;8.684;2023-12-29T01:30:00;4.40;;;4.10;;
55224;SDS011;41091;49.400;8.684;2023-12-29T01:32:26;6.85;;;3.70;;
55224;SDS011;41091;49.400;8.684;2023-12-29T01:34:53;6.90;;;3.70;;
55224;SDS011;41091;49.400;8.684;2023-12-29T01:37:19;4.50;;;3.63;;
55224;SDS011;41091;49.400;8.684;2023-12-29T01:39:46;6.95;;;4.05;;
55224;SDS011;41091;49.400;8.684;2023-12-29T01:42:12;4.45;;;4.05;;
55224;SDS011;41091;49.400;8.684;2023-12-29T01:44:37;7.10;;;3.70;;
55224;SDS011;41091;49.400;8.684;2023-12-29T01:47:10;6.25;;;3.38;;
55224;SDS011;41091;49.400;8.684;2023-12-29T01:49:38;3.58;;;3.28;;
55224;SDS011;41091;49.400;8.684;2023-12-29T01:52:03;3.35;;;3.10;;
55224;SDS011;41091;49.400;8.684;2023-12-29T01:54:31;4.13;;;3.72;;
55224;SDS011;41091;49.400;8.684;2023-12-29T01:57:03;3.42;;;3.15;;
55224;SDS011;41091;49.400;8.684;2023-12-29T01:59:28;5.05;;;4.07;;
55224;SDS011;41091;49.400;8.684;2023-12-29T02:01:54;4.35;;;3.92;;
55224;SDS011;41091;49.400;8.684;2023-12-29T02:04:25;4.47;;;4.18;;
55224;SDS011;41091;49.400;8.684;2023-12-29T02:06:50;3.53;;;2.97;;
55224;SDS011;41091;49.400;8.684;2023-12-29T02:09:16;4.68;;;4.28;;
55224;SDS011;41091;49.400;8.684;2023-12-29T02:11:42;4.05;;;3.70;;
55224;SDS011;41091;49.400;8.684;2023-12-29T02:14:07;5.03;;;4.57;;
55224;SDS011;41091;49.400;8.684;2023-12-29T02:16:50;4.82;;;4.13;;
55224;SDS011;41091;49.400;8.684;2023-12-29T02:19:37;3.80;;;3.50;;
55224;SDS011;41091;49.400;8.684;2023-12-29T02:22:07;4.17;;;3.80;;
55224;SDS011;41091;49.400;8.684;2023-12-29T02:24:34;3.80;;;3.50;;
55224;SDS011;41091;49.400;8.684;2023-12-29T02:27:11;4.25;;;3.10;;
55224;SDS011;41091;49.400;8.684;2023-12-29T02:32:25;7.32;;;3.85;;
55224;SDS011;41091;49.400;8.684;2023-12-29T02:34:52;5.20;;;3.58;;
55224;SDS011;41091;49.400;8.684;2023-12-29T02:37:19;4.38;;;4.03;;
55224;SDS011;41091;49.400;8.684;2023-12-29T02:39:45;5.20;;;3.85;;
55224;SDS011;41091;49.400;8.684;2023-12-29T02:42:11;6.20;;;4.43;;
55224;SDS011;41091;49.400;8.684;2023-12-29T02:44:36;3.92;;;3.35;;
55224;SDS011;41091;49.400;8.684;2023-12-29T02:47:01;3.35;;;3.13;;
55224;SDS011;41091;49.400;8.684;2023-12-29T02:49:29;3.75;;;3.33;;
55224;SDS011;41091;49.400;8.684;2023-12-29T02:51:56;3.53;;;3.33;;
55224;SDS011;41091;49.400;8.684;2023-12-29T02:54:22;6.07;;;3.40;;
55224;SDS011;41091;49.400;8.684;2023-12-29T02:56:47;3.60;;;3.40;;
55224;SDS011;41091;49.400;8.684;2023-12-29T02:59:12;3.83;;;3.63;;
55224;SDS011;41091;49.400;8.684;2023-12-29T03:01:37;5.80;;;3.50;;
55224;SDS011;41091;49.400;8.684;2023-12-29T03:04:03;4.53;;;3.75;;
55224;SDS011;41091;49.400;8.684;2023-12-29T03:06:31;3.63;;;3.33;;
55224;SDS011;41091;49.400;8.684;2023-12-29T03:08:56;4.50;;;3.85;;
55224;SDS011;41091;49.400;8.684;2023-12-29T03:11:21;3.35;;;3.15;;
55224;SDS011;41091;49.400;8.684;2023-12-29T03:13:49;4.10;;;3.35;;
55224;SDS011;41091;49.400;8.684;2023-12-29T03:16:17;3.72;;;3.42;;
55224;SDS011;41091;49.400;8.684;2023-12-29T03:18:42;7.03;;;3.50;;
55224;SDS011;41091;49.400;8.684;2023-12-29T03:21:07;5.95;;;3.58;;
55224;SDS011;41091;49.400;8.684;2023-12-29T03:23:35;3.30;;;3.10;;
55224;SDS011;41091;49.400;8.684;2023-12-29T03:26:00;4.15;;;3.40;;
55224;SDS011;41091;49.400;8.684;2023-12-29T03:28:28;4.13;;;3.75;;
55224;SDS011;41091;49.400;8.684;2023-12-29T03:30:53;8.02;;;3.80;;
55224;SDS011;41091;49.400;8.684;2023-12-29T03:33:18;5.30;;;4.07;;
55224;SDS011;41091;49.400;8.684;2023-12-29T03:35:46;3.53;;;3.20;;
55224;SDS011;41091;49.400;8.684;2023-12-29T03:38:12;6.82;;;3.65;;
55224;SDS011;41091;49.400;8.684;2023-12-29T03:40:40;5.50;;;3.88;;
55224;SDS011;41091;49.400;8.684;2023-12-29T03:43:05;4.68;;;3.70;;
55224;SDS011;41091;49.400;8.684;2023-12-29T03:45:33;4.57;;;3.83;;
55224;SDS011;41091;49.400;8.684;2023-12-29T03:47:58;5.47;;;4.22;;
55224;SDS011;41091;49.400;8.684;2023-12-29T03:50:26;4.30;;;3.92;;
55224;SDS011;41091;49.400;8.684;2023-12-29T03:52:56;5.30;;;4.05;;
55224;SDS011;41091;49.400;8.684;2023-12-29T03:55:21;4.95;;;4.50;;
55224;SDS011;41091;49.400;8.684;2023-12-29T03:57:49;8.73;;;5.40;;
55224;SDS011;41091;49.400;8.684;2023-12-29T04:00:16;4.43;;;4.10;;
55224;SDS011;41091;49.400;8.684;2023-12-29T04:02:42;4.78;;;4.38;;
55224;SDS011;41091;49.400;8.684;2023-12-29T04:05:10;5.43;;;4.60;;
55224;SDS011;41091;49.400;8.684;2023-12-29T04:07:36;5.88;;;4.80;;
55224;SDS011;41091;49.400;8.684;2023-12-29T04:10:04;5.25;;;4.75;;
55224;SDS011;41091;49.400;8.684;2023-12-29T04:12:29;6.32;;;4.45;;
55224;SDS011;41091;49.400;8.684;2023-12-29T04:14:55;5.43;;;4.95;;
55224;SDS011;41091;49.400;8.684;2023-12-29T04:17:20;8.50;;;4.45;;
55224;SDS011;41091;49.400;8.684;2023-12-29T04:19:45;4.78;;;4.32;;
55224;SDS011;41091;49.400;8.684;2023-12-29T04:22:13;6.70;;;4.55;;
55224;SDS011;41091;49.400;8.684;2023-12-29T04:24:38;6.60;;;4.07;;
55224;SDS011;41091;49.400;8.684;2023-12-29T04:27:04;5.82;;;4.70;;
55224;SDS011;41091;49.400;8.684;2023-12-29T04:29:32;4.40;;;4.00;;
55224;SDS011;41091;49.400;8.684;2023-12-29T04:31:59;4.90;;;4.60;;
55224;SDS011;41091;49.400;8.684;2023-12-29T04:34:27;8.90;;;4.70;;
55224;SDS011;41091;49.400;8.684;2023-12-29T04:36:55;5.80;;;3.90;;
55224;SDS011;41091;49.400;8.684;2023-12-29T04:39:20;8.65;;;4.35;;
55224;SDS011;41091;49.400;8.684;2023-12-29T04:41:45;4.93;;;4.43;;
55224;SDS011;41091;49.400;8.684;2023-12-29T04:44:13;7.18;;;4.15;;
55224;SDS011;41091;49.400;8.684;2023-12-29T04:46:38;4.72;;;3.55;;
55224;SDS011;41091;49.400;8.684;2023-12-29T04:49:04;5.03;;;3.97;;
55224;SDS011;41091;49.400;8.684;2023-12-29T04:51:29;4.60;;;3.92;;
55224;SDS011;41091;49.400;8.684;2023-12-29T04:53:57;3.90;;;3.70;;
55224;SDS011;41091;49.400;8.684;2023-12-29T04:56:24;6.28;;;3.88;;
55224;SDS011;41091;49.400;8.684;2023-12-29T04:58:51;6.68;;;3.45;;
55224;SDS011;41091;49.400;8.684;2023-12-29T05:01:16;3.92;;;3.60;;
55224;SDS011;41091;49.400;8.684;2023-12-29T05:03:46;3.90;;;3.60;;
55224;SDS011;41091;49.400;8.684;2023-12-29T05:06:12;5.22;;;3.42;;
55224;SDS011;41091;49.400;8.684;2023-12-29T05:08:42;6.18;;;3.58;;
55224;SDS011;41091;49.400;8.684;2023-12-29T05:11:10;4.80;;;3.92;;
55224;SDS011;41091;49.400;8.684;2023-12-29T05:13:37;3.65;;;3.35;;
55224;SDS011;41091;49.400;8.684;2023-12-29T05:16:02;7.65;;;4.32;;
55224;SDS011;41091;49.400;8.684;2023-12-29T05:18:30;3.85;;;3.55;;
55224;SDS011;41091;49.400;8.684;2023-12-29T05:20:56;3.58;;;3.28;;
55224;SDS011;41091;49.400;8.684;2023-12-29T05:23:21;4.22;;;3.92;;
55224;SDS011;41091;49.400;8.684;2023-12-29T05:25:51;4.03;;;3.65;;
55224;SDS011;41091;49.400;8.684;2023-12-29T05:28:21;3.40;;;3.17;;
55224;SDS011;41091;49.400;8.684;2023-12-29T05:30:46;4.25;;;3.92;;
55224;SDS011;41091;49.400;8.684;2023-12-29T05:33:12;4.10;;;3.15;;
55224;SDS011;41091;49.400;8.684;2023-12-29T05:35:37;3.35;;;3.00;;
55224;SDS011;41091;49.400;8.684;2023-12-29T05:38:02;3.42;;;3.13;;
55224;SDS011;41091;49.400;8.684;2023-12-29T05:40:30;5.43;;;3.17;;
55224;SDS011;41091;49.400;8.684;2023-12-29T05:42:55;3.30;;;3.05;;
55224;SDS011;41091;49.400;8.684;2023-12-29T05:45:23;3.28;;;2.92;;
55224;SDS011;41091;49.400;8.684;2023-12-29T05:47:48;3.15;;;2.92;;
55224;SDS011;41091;49.400;8.684;2023-12-29T05:50:14;3.10;;;2.78;;
55224;SDS011;41091;49.400;8.684;2023-12-29T05:52:39;2.78;;;2.58;;
55224;SDS011;41091;49.400;8.684;2023-12-29T05:55:05;3.47;;;3.28;;
55224;SDS011;41091;49.400;8.684;2023-12-29T05:57:30;3.45;;;3.05;;
55224;SDS011;41091;49.400;8.684;2023-12-29T05:59:55;3.67;;;2.95;;
55224;SDS011;41091;49.400;8.684;2023-12-29T06:02:23;3.63;;;3.28;;
55224;SDS011;41091;49.400;8.684;2023-12-29T06:04:51;2.78;;;2.58;;
55224;SDS011;41091;49.400;8.684;2023-12-29T06:07:16;2.92;;;2.65;;
55224;SDS011;41091;49.400;8.684;2023-12-29T06:09:44;4.63;;;2.88;;
55224;SDS011;41091;49.400;8.684;2023-12-29T06:12:09;3.22;;;3.03;;
55224;SDS011;41091;49.400;8.684;2023-12-29T06:14:36;3.10;;;2.90;;
55224;SDS011;41091;49.400;8.684;2023-12-29T06:17:04;3.67;;;3.38;;
55224;SDS011;41091;49.400;8.684;2023-12-29T06:19:31;3.10;;;2.90;;
55224;SDS011;41091;49.400;8.684;2023-12-29T06:21:57;2.78;;;2.67;;
55224;SDS011;41091;49.400;8.684;2023-12-29T06:24:23;3.25;;;2.80;;
55224;SDS011;41091;49.400;8.684;2023-12-29T06:26:48;3.75;;;3.50;;
55224;SDS011;41091;49.400;8.684;2023-12-29T06:29:13;9.27;;;2.97;;
55224;SDS011;41091;49.400;8.684;2023-12-29T06:31:41;5.03;;;3.33;;
55224;SDS011;41091;49.400;8.684;2023-12-29T06:34:07;3.88;;;3.30;;
55224;SDS011;41091;49.400;8.684;2023-12-29T06:36:32;6.75;;;3.30;;
55224;SDS011;41091;49.400;8.684;2023-12-29T06:39:00;4.45;;;3.80;;
55224;SDS011;41091;49.400;8.684;2023-12-29T06:41:27;3.22;;;3.00;;
55224;SDS011;41091;49.400;8.684;2023-12-29T06:43:55;3.00;;;2.85;;
55224;SDS011;41091;49.400;8.684;2023-12-29T06:46:23;5.50;;;3.10;;
55224;SDS011;41091;49.400;8.684;2023-12-29T06:48:48;3.67;;;3.13;;
55224;SDS011;41091;49.400;8.684;2023-12-29T06:51:17;3.50;;;3.20;;
55224;SDS011;41091;49.400;8.684;2023-12-29T06:53:43;2.83;;;2.72;;
55224;SDS011;41091;49.400;8.684;2023-12-29T06:56:13;4.57;;;3.08;;
55224;SDS011;41091;49.400;8.684;2023-12-29T06:58:43;3.20;;;3.00;;
55224;SDS011;41091;49.400;8.684;2023-12-29T07:01:11;4.57;;;3.45;;
55224;SDS011;41091;49.400;8.684;2023-12-29T07:03:39;3.60;;;3.05;;
55224;SDS011;41091;49.400;8.684;2023-12-29T07:06:07;3.55;;;3.30;;
55224;SDS011;41091;49.400;8.684;2023-12-29T07:08:34;8.50;;;2.92;;
55224;SDS011;41091;49.400;8.684;2023-12-29T07:11:00;2.97;;;2.78;;
55224;SDS011;41091;49.400;8.684;2023-12-29T07:13:25;3.47;;;2.85;;
55224;SDS011;41091;49.400;8.684;2023-12-29T07:15:50;7.43;;;4.05;;
55224;SDS011;41091;49.400;8.684;2023-12-29T07:18:16;3.33;;;3.10;;
55224;SDS011;41091;49.400;8.684;2023-12-29T07:20:42;6.07;;;3.28;;
55224;SDS011;41091;49.400;8.684;2023-12-29T07:23:07;4.30;;;3.28;;
55224;SDS011;41091;49.400;8.684;2023-12-29T07:25:35;3.42;;;3.13;;
55224;SDS011;41091;49.400;8.684;2023-12-29T07:28:00;3.63;;;3.10;;
55224;SDS011;41091;49.400;8.684;2023-12-29T07:30:26;3.85;;;3.45;;
55224;SDS011;41091;49.400;8.684;2023-12-29T07:32:51;3.20;;;3.00;;
55224;SDS011;41091;49.400;8.684;2023-12-29T07:35:19;4.32;;;3.28;;
55224;SDS011;41091;49.400;8.684;2023-12-29T07:37:46;3.95;;;3.45;;
55224;SDS011;41091;49.400;8.684;2023-12-29T07:40:12;5.13;;;3.28;;
55224;SDS011;41091;49.400;8.684;2023-12-29T07:42:41;4.82;;;3.10;;
55224;SDS011;41091;49.400;8.684;2023-12-29T07:45:11;4.03;;;3.67;;
55224;SDS011;41091;49.400;8.684;2023-12-29T07:47:39;3.45;;;3.15;;
55224;SDS011;41091;49.400;8.684;2023-12-29T07:50:04;3.53;;;3.20;;
55224;SDS011;41091;49.400;8.684;2023-12-29T07:52:32;3.45;;;3.17;;
55224;SDS011;41091;49.400;8.684;2023-12-29T07:54:57;3.65;;;3.35;;
55224;SDS011;41091;49.400;8.684;2023-12-29T07:57:25;5.40;;;3.33;;
55224;SDS011;41091;49.400;8.684;2023-12-29T07:59:50;9.05;;;3.97;;
55224;SDS011;41091;49.400;8.684;2023-12-29T08:02:15;3.25;;;3.00;;
55224;SDS011;41091;49.400;8.684;2023-12-29T08:04:41;3.53;;;3.22;;
55224;SDS011;41091;49.400;8.684;2023-12-29T08:07:07;2.97;;;2.78;;
55224;SDS011;41091;49.400;8.684;2023-12-29T08:09:32;2.88;;;2.63;;
55224;SDS011;41091;49.400;8.684;2023-12-29T08:12:00;3.10;;;2.90;;
55224;SDS011;41091;49.400;8.684;2023-12-29T08:14:25;2.95;;;2.60;;
55224;SDS011;41091;49.400;8.684;2023-12-29T08:16:53;3.20;;;2.63;;
55224;SDS011;41091;49.400;8.684;2023-12-29T08:19:22;2.90;;;2.72;;
55224;SDS011;41091;49.400;8.684;2023-12-29T08:21:50;3.00;;;2.78;;
55224;SDS011;41091;49.400;8.684;2023-12-29T08:24:18;4.20;;;3.90;;
55224;SDS011;41091;49.400;8.684;2023-12-29T08:26:46;2.95;;;2.70;;
55224;SDS011;41091;49.400;8.684;2023-12-29T08:29:15;2.53;;;2.35;;
55224;SDS011;41091;49.400;8.684;2023-12-29T08:31:41;3.28;;;3.05;;
55224;SDS011;41091;49.400;8.684;2023-12-29T08:34:09;2.65;;;2.55;;
55224;SDS011;41091;49.400;8.684;2023-12-29T08:36:34;3.53;;;3.33;;
55224;SDS011;41091;49.400;8.684;2023-12-29T08:39:00;11.85;;;3.85;;
55224;SDS011;41091;49.400;8.684;2023-12-29T08:41:28;4.70;;;3.05;;
55224;SDS011;41091;49.400;8.684;2023-12-29T08:43:54;13.32;;;7.38;;
55224;SDS011;41091;49.400;8.684;2023-12-29T08:46:19;5.85;;;4.03;;
55224;SDS011;41091;49.400;8.684;2023-12-29T08:48:47;5.63;;;3.17;;
55224;SDS011;41091;49.400;8.684;2023-12-29T08:51:15;4.03;;;3.63;;
55224;SDS011;41091;49.400;8.684;2023-12-29T08:53:45;9.68;;;6.03;;
55224;SDS011;41091;49.400;8.684;2023-12-29T08:56:10;3.30;;;3.03;;
55224;SDS011;41091;49.400;8.684;2023-12-29T08:58:35;8.35;;;6.47;;
55224;SDS011;41091;49.400;8.684;2023-12-29T09:01:03;7.38;;;3.75;;
55224;SDS011;41091;49.400;8.684;2023-12-29T09:03:28;6.00;;;5.30;;
55224;SDS011;41091;49.400;8.684;2023-12-29T09:05:54;3.90;;;3.50;;
55224;SDS011;41091;49.400;8.684;2023-12-29T09:08:22;5.70;;;5.20;;
55224;SDS011;41091;49.400;8.684;2023-12-29T09:10:49;4.03;;;3.53;;
55224;SDS011;41091;49.400;8.684;2023-12-29T09:13:14;5.25;;;4.75;;
55224;SDS011;41091;49.400;8.684;2023-12-29T09:15:40;2.70;;;2.50;;
55224;SDS011;41091;49.400;8.684;2023-12-29T09:18:08;3.78;;;2.80;;
55224;SDS011;41091;49.400;8.684;2023-12-29T09:20:33;3.28;;;3.08;;
55224;SDS011;41091;49.400;8.684;2023-12-29T09:23:01;4.45;;;3.50;;
55224;SDS011;41091;49.400;8.684;2023-12-29T09:25:28;5.63;;;3.28;;
55224;SDS011;41091;49.400;8.684;2023-12-29T09:27:54;5.80;;;3.58;;
55224;SDS011;41091;49.400;8.684;2023-12-29T09:30:19;6.53;;;2.67;;
55224;SDS011;41091;49.400;8.684;2023-12-29T09:32:44;3.40;;;3.20;;
55224;SDS011;41091;49.400;8.684;2023-12-29T09:35:10;3.65;;;2.88;;
55224;SDS011;41091;49.400;8.684;2023-12-29T09:37:35;4.00;;;3.50;;
55224;SDS011;41091;49.400;8.684;2023-12-29T09:40:03;2.97;;;2.78;;
55224;SDS011;41091;49.400;8.684;2023-12-29T09:42:31;5.82;;;3.70;;
55224;SDS011;41091;49.400;8.684;2023-12-29T09:44:56;8.63;;;7.35;;
55224;SDS011;41091;49.400;8.684;2023-12-29T09:47:25;3.83;;;3.47;;
55224;SDS011;41091;49.400;8.684;2023-12-29T09:49:53;3.30;;;3.05;;
55224;SDS011;41091;49.400;8.684;2023-12-29T09:52:23;3.10;;;2.90;;
55224;SDS011;41091;49.400;8.684;2023-12-29T09:54:51;2.95;;;2.85;;
55224;SDS011;41091;49.400;8.684;2023-12-29T09:57:17;3.20;;;3.03;;
55224;SDS011;41091;49.400;8.684;2023-12-29T09:59:48;5.35;;;2.63;;
55224;SDS011;41091;49.400;8.684;2023-12-29T10:02:19;2.35;;;2.15;;
55224;SDS011;41091;49.400;8.684;2023-12-29T10:04:45;3.90;;;2.33;;
55224;SDS011;41091;49.400;8.684;2023-12-29T10:07:13;2.42;;;2.33;;
55224;SDS011;41091;49.400;8.684;2023-12-29T10:09:59;2.22;;;2.13;;
55224;SDS011;41091;49.400;8.684;2023-12-29T10:12:29;2.50;;;2.30;;
55224;SDS011;41091;49.400;8.684;2023-12-29T10:17:36;2.22;;;2.10;;
55224;SDS011;41091;49.400;8.684;2023-12-29T10:25:40;1.75;;;1.38;;
55224;SDS011;41091;49.400;8.684;2023-12-29T10:28:06;7.35;;;2.15;;
55224;SDS011;41091;49.400;8.684;2023-12-29T10:30:36;1.98;;;1.88;;
55224;SDS011;41091;49.400;8.684;2023-12-29T10:33:05;2.85;;;1.98;;
55224;SDS011;41091;49.400;8.684;2023-12-29T10:35:30;2.08;;;1.80;;
55224;SDS011;41091;49.400;8.684;2023-12-29T10:38:12;2.03;;;1.90;;
55224;SDS011;41091;49.400;8.684;2023-12-29T10:40:37;1.98;;;1.70;;
55224;SDS011;41091;49.400;8.684;2023-12-29T10:43:05;2.08;;;1.92;;
55224;SDS011;41091;49.400;8.684;2023-12-29T10:45:36;3.17;;;1.40;;
55224;SDS011;41091;49.400;8.684;2023-12-29T10:48:02;1.70;;;1.60;;
55224;SDS011;41091;49.400;8.684;2023-12-29T10:50:30;1.67;;;1.58;;
55224;SDS011;41091;49.400;8.684;2023-12-29T10:53:11;2.40;;;1.60;;
55224;SDS011;41091;49.400;8.684;2023-12-29T10:55:42;2.22;;;2.03;;
55224;SDS011;41091;49.400;8.684;2023-12-29T10:58:09;1.40;;;1.40;;
55224;SDS011;41091;49.400;8.684;2023-12-29T11:00:34;2.83;;;1.73;;
55224;SDS011;41091;49.400;8.684;2023-12-29T11:03:00;1.50;;;1.40;;
55224;SDS011;41091;49.400;8.684;2023-12-29T11:05:26;1.00;;;1.00;;
55224;SDS011;41091;49.400;8.684;2023-12-29T11:07:54;1.75;;;1.70;;
55224;SDS011;41091;49.400;8.684;2023-12-29T11:10:22;3.20;;;1.58;;
55224;SDS011;41091;49.400;8.684;2023-12-29T11:12:48;3.10;;;1.30;;
55224;SDS011;41091;49.400;8.684;2023-12-29T11:15:16;1.77;;;1.48;;
55224;SDS011;41091;49.400;8.684;2023-12-29T11:17:42;1.65;;;1.35;;
55224;SDS011;41091;49.400;8.684;2023-12-29T11:20:15;3.10;;;1.52;;
55224;SDS011;41091;49.400;8.684;2023-12-29T11:22:42;5.15;;;1.50;;
55224;SDS011;41091;49.400;8.684;2023-12-29T11:25:08;2.00;;;1.88;;
55224;SDS011;41091;49.400;8.684;2023-12-29T11:27:33;3.50;;;1.50;;
55224;SDS011;41091;49.400;8.684;2023-12-29T11:30:02;2.08;;;1.20;;
55224;SDS011;41091;49.400;8.684;2023-12-29T11:35:25;1.40;;;1.30;;
55224;SDS011;41091;49.400;8.684;2023-12-29T11:40:26;2.00;;;0.90;;
55224;SDS011;41091;49.400;8.684;2023-12-29T11:42:57;1.40;;;1.30;;
55224;SDS011;41091;49.400;8.684;2023-12-29T11:45:28;1.30;;;1.20;;
55224;SDS011;41091;49.400;8.684;2023-12-29T11:47:54;1.83;;;1.42;;
55224;SDS011;41091;49.400;8.684;2023-12-29T11:50:36;1.10;;;1.10;;
55224;SDS011;41091;49.400;8.684;2023-12-29T11:53:05;1.15;;;1.00;;
55224;SDS011;41091;49.400;8.684;2023-12-29T11:55:35;1.67;;;1.58;;
55224;SDS011;41091;49.400;8.684;2023-12-29T11:58:22;1.98;;;1.40;;
55224;SDS011;41091;49.400;8.684;2023-12-29T12:00:48;1.42;;;1.02;;
55224;SDS011;41091;49.400;8.684;2023-12-29T12:03:17;0.88;;;0.70;;
55224;SDS011;41091;49.400;8.684;2023-12-29T12:08:09;0.93;;;0.90;;
55224;SDS011;41091;49.400;8.684;2023-12-29T12:10:35;0.68;;;0.68;;
55224;SDS011;41091;49.400;8.684;2023-12-29T12:13:03;0.80;;;0.70;;
55224;SDS011;41091;49.400;8.684;2023-12-29T12:17:58;0.80;;;0.80;;
55224;SDS011;41091;49.400;8.684;2023-12-29T12:20:24;5.32;;;0.95;;
55224;SDS011;41091;49.400;8.684;2023-12-29T12:23:02;1.95;;;0.65;;
55224;SDS011;41091;49.400;8.684;2023-12-29T12:25:42;0.75;;;0.75;;
55224;SDS011;41091;49.400;8.684;2023-12-29T12:28:10;1.83;;;1.33;;
55224;SDS011;41091;49.400;8.684;2023-12-29T12:30:41;1.05;;;1.02;;
55224;SDS011;41091;49.400;8.684;2023-12-29T12:33:06;1.50;;;0.82;;
55224;SDS011;41091;49.400;8.684;2023-12-29T12:35:34;0.70;;;0.70;;
55224;SDS011;41091;49.400;8.684;2023-12-29T12:38:17;2.88;;;1.70;;
55224;SDS011;41091;49.400;8.684;2023-12-29T12:40:47;1.85;;;0.88;;
55224;SDS011;41091;49.400;8.684;2023-12-29T12:43:16;1.75;;;1.15;;
55224;SDS011;41091;49.400;8.684;2023-12-29T12:45:42;0.95;;;0.88;;
55224;SDS011;41091;49.400;8.684;2023-12-29T12:48:23;2.95;;;0.80;;
55224;SDS011;41091;49.400;8.684;2023-12-29T12:50:53;0.80;;;0.75;;
55224;SDS011;41091;49.400;8.684;2023-12-29T12:53:21;1.08;;;1.02;;
55224;SDS011;41091;49.400;8.684;2023-12-29T12:55:47;1.48;;;1.05;;
55224;SDS011;41091;49.400;8.684;2023-12-29T12:58:14;0.80;;;0.80;;
55224;SDS011;41091;49.400;8.684;2023-12-29T13:00:40;0.93;;;0.93;;
55224;SDS011;41091;49.400;8.684;2023-12-29T13:03:08;1.17;;;0.82;;
55224;SDS011;41091;49.400;8.684;2023-12-29T13:05:36;0.80;;;0.80;;
55224;SDS011;41091;49.400;8.684;2023-12-29T13:08:02;0.98;;;0.93;;
55224;SDS011;41091;49.400;8.684;2023-12-29T13:10:31;0.80;;;0.80;;
55224;SDS011;41091;49.400;8.684;2023-12-29T13:12:56;1.02;;;1.02;;
55224;SDS011;41091;49.400;8.684;2023-12-29T13:15:24;0.90;;;0.90;;
55224;SDS011;41091;49.400;8.684;2023-12-29T13:17:52;1.02;;;0.90;;
55224;SDS011;41091;49.400;8.684;2023-12-29T13:20:18;1.00;;;1.00;;
55224;SDS011;41091;49.400;8.684;2023-12-29T13:22:46;0.80;;;0.80;;
55224;SDS011;41091;49.400;8.684;2023-12-29T13:25:18;1.00;;;1.00;;
55224;SDS011;41091;49.400;8.684;2023-12-29T13:27:51;1.83;;;1.17;;
55224;SDS011;41091;49.400;8.684;2023-12-29T13:30:17;1.67;;;1.58;;
55224;SDS011;41091;49.400;8.684;2023-12-29T13:32:46;1.30;;;1.30;;
55224;SDS011;41091;49.400;8.684;2023-12-29T13:35:17;2.17;;;1.98;;
55224;SDS011;41091;49.400;8.684;2023-12-29T13:40:14;11.57;;;4.47;;
55224;SDS011;41091;49.400;8.684;2023-12-29T13:42:45;7.22;;;4.00;;
55224;SDS011;41091;49.400;8.684;2023-12-29T13:45:17;7.65;;;4.60;;
55224;SDS011;41091;49.400;8.684;2023-12-29T13:47:43;8.55;;;4.82;;
55224;SDS011;41091;49.400;8.684;2023-12-29T13:50:09;7.90;;;4.88;;
55224;SDS011;41091;49.400;8.684;2023-12-29T13:52:38;6.10;;;4.60;;
55224;SDS011;41091;49.400;8.684;2023-12-29T13:55:03;7.25;;;2.28;;
55224;SDS011;41091;49.400;8.684;2023-12-29T13:57:30;3.20;;;1.73;;
55224;SDS011;41091;49.400;8.684;2023-12-29T13:59:56;1.42;;;1.30;;
55224;SDS011;41091;49.400;8.684;2023-12-29T14:02:28;4.70;;;1.60;;
55224;SDS011;41091;49.400;8.684;2023-12-29T14:05:09;2.90;;;1.98;;
55224;SDS011;41091;49.400;8.684;2023-12-29T14:07:39;1.90;;;1.80;;
55224;SDS011;41091;49.400;8.684;2023-12-29T14:10:12;1.13;;;1.10;;
55224;SDS011;41091;49.400;8.684;2023-12-29T14:12:37;1.60;;;1.50;;
55224;SDS011;41091;49.400;8.684;2023-12-29T14:15:05;12.43;;;7.65;;
55224;SDS011;41091;49.400;8.684;2023-12-29T14:17:31;17.20;;;8.82;;
55224;SDS011;41091;49.400;8.684;2023-12-29T14:19:58;9.95;;;7.30;;
55224;SDS011;41091;49.400;8.684;2023-12-29T14:22:29;3.95;;;3.15;;
55224;SDS011;41091;49.400;8.684;2023-12-29T14:25:01;2.65;;;2.45;;
55224;SDS011;41091;49.400;8.684;2023-12-29T14:27:28;6.07;;;5.30;;
55224;SDS011;41091;49.400;8.684;2023-12-29T14:29:54;8.07;;;6.07;;
55224;SDS011;41091;49.400;8.684;2023-12-29T14:32:19;6.90;;;4.50;;
55224;SDS011;41091;49.400;8.684;2023-12-29T14:34:47;5.88;;;5.13;;
55224;SDS011;41091;49.400;8.684;2023-12-29T14:37:17;2.95;;;2.40;;
55224;SDS011;41091;49.400;8.684;2023-12-29T14:39:50;1.60;;;1.50;;
55224;SDS011;41091;49.400;8.684;2023-12-29T14:42:15;3.42;;;1.10;;
55224;SDS011;41091;49.400;8.684;2023-12-29T14:44:48;1.58;;;1.42;;
55224;SDS011;41091;49.400;8.684;2023-12-29T14:47:14;1.15;;;1.08;;
55224;SDS011;41091;49.400;8.684;2023-12-29T14:49:40;1.20;;;1.08;;
55224;SDS011;41091;49.400;8.684;2023-12-29T14:52:05;1.95;;;1.30;;
55224;SDS011;41091;49.400;8.684;2023-12-29T14:54:31;2.25;;;1.00;;
55224;SDS011;41091;49.400;8.684;2023-12-29T14:56:56;1.63;;;1.13;;
55224;SDS011;41091;49.400;8.684;2023-12-29T14:59:21;1.42;;;1.33;;
55224;SDS011;41091;49.400;8.684;2023-12-29T15:01:47;1.30;;;1.20;;
55224;SDS011;41091;49.400;8.684;2023-12-29T15:04:12;2.90;;;2.35;;
55224;SDS011;41091;49.400;8.684;2023-12-29T15:06:39;0.70;;;0.70;;
55224;SDS011;41091;49.400;8.684;2023-12-29T15:09:05;1.48;;;1.20;;
55224;SDS011;41091;49.400;8.684;2023-12-29T15:11:32;2.50;;;1.20;;
55224;SDS011;41091;49.400;8.684;2023-12-29T15:14:03;1.35;;;1.17;;